Time,TemperatureF,DewpointF,PressureIn,WindDirection,WindDirectionDegrees,WindSpeedMPH,WindSpeedGustMPH,Humidity,HourlyPrecipIn,Conditions,Clouds,dailyrainin,SolarRadiationWatts/m^2,SoftwareType,DateUTC
2013-07-15 00:00:00,72.0,72.0,29.34,NE,45,0.0,0.0,100,0.00,,---,0.00,0.00,VWS V14.01,2013-07-15 04:00:00,
2013-07-15 00:01:00,72.0,72.0,29.34,NE,45,0.0,0.0,100,0.00,,---,0.00,0.00,VWS V14.01,2013-07-15 04:01:00,
2013-07-15 00:02:00,72.0,72.0,29.34,NE,45,0.0,0.0,100,0.00,,---,0.00,0.00,VWS V14.01,2013-07-15 04:02:00,
2013-07-15 00:08:00,72.0,72.0,29.34,NE,45,0.0,0.0,100,0.00,,---,0.00,0.00,VWS V14.01,2013-07-15 04:08:00,
2013-07-15 00:13:00,72.0,72.0,29.34,NE,45,0.0,0.0,100,0.00,,---,0.00,0.00,VWS V14.01,2013-07-15 04:13:00,
2013-07-15 00:18:00,72.0,72.0,29.34,NE,45,0.0,0.0,100,0.00,,---,0.00,0.00,VWS V14.01,2013-07-15 04:18:00,
2013-07-15 00:23:00,72.0,72.0,29.34,NE,45,0.0,0.0,100,0.00,,---,0.00,0.00,VWS V14.01,2013-07-15 04:23:00,
2013-07-15 00:28:00,72.0,72.0,29.34,NE,45,0.0,0.0,100,0.00,,---,0.00,0.00,VWS V14.01,2013-07-15 04:28:00,
2013-07-15 00:33:00,72.0,72.0,29.34,NE,45,0.0,0.0,100,0.00,,---,0.00,0.00,VWS V14.01,2013-07-15 04:33:00,
2013-07-15 00:38:00,72.0,72.0,29.35,NE,45,0.0,0.0,100,0.00,,---,0.00,0.00,VWS V14.01,2013-07-15 04:38:00,
2013-07-15 00:43:00,72.0,72.0,29.35,East,90,3.0,4.0,100,0.00,,---,0.00,0.00,VWS V14.01,2013-07-15 04:43:00,
2013-07-15 00:48:00,73.0,73.0,29.35,East,90,2.0,3.0,100,0.00,,---,0.00,0.00,VWS V14.01,2013-07-15 04:48:00,
2013-07-15 00:53:00,74.0,74.0,29.35,ESE,112,4.0,4.0,100,0.00,,---,0.00,0.00,VWS V14.01,2013-07-15 04:53:00,
2013-07-15 00:58:00,75.0,74.7,29.34,SSE,157,0.0,3.0,99,0.00,,---,0.00,0.00,VWS V14.01,2013-07-15 04:58:00,
2013-07-15 01:03:00,76.0,75.1,29.34,ESE,112,1.0,5.0,97,0.00,,---,0.00,0.00,VWS V14.01,2013-07-15 05:03:00,
2013-07-15 01:08:00,76.0,73.8,29.33,SSE,157,2.0,4.0,93,0.00,,---,0.00,0.00,VWS V14.01,2013-07-15 05:08:00,
2013-07-15 01:13:00,76.0,73.8,29.33,SSE,157,2.0,4.0,93,0.00,,---,0.00,0.00,VWS V14.01,2013-07-15 05:13:00,
2013-07-15 01:18:00,77.0,74.5,29.34,SSE,157,0.0,3.0,92,0.00,,---,0.00,0.00,VWS V14.01,2013-07-15 05:18:00,
2013-07-15 01:23:00,76.0,73.5,29.34,ESE,112,2.0,3.0,92,0.00,,---,0.00,0.00,VWS V14.01,2013-07-15 05:23:00,
2013-07-15 01:28:00,77.0,74.5,29.33,SE,135,1.0,1.0,92,0.00,,---,0.00,0.00,VWS V14.01,2013-07-15 05:28:00,
2013-07-15 01:33:00,76.0,73.8,29.33,SSE,157,0.0,0.0,93,0.00,,---,0.00,0.00,VWS V14.01,2013-07-15 05:33:00,
2013-07-15 01:38:00,76.0,73.8,29.34,SE,135,0.0,0.0,93,0.00,,---,0.00,0.00,VWS V14.01,2013-07-15 05:38:00,
2013-07-15 01:43:00,76.0,74.2,29.34,SE,135,0.0,0.0,94,0.00,,---,0.00,0.00,VWS V14.01,2013-07-15 05:43:00,
2013-07-15 01:48:00,76.0,73.8,29.34,SE,135,0.0,0.0,93,0.00,,---,0.00,0.00,VWS V14.01,2013-07-15 05:48:00,
2013-07-15 01:53:00,76.0,74.5,29.34,SE,135,0.0,0.0,95,0.00,,---,0.00,0.00,VWS V14.01,2013-07-15 05:53:00,
2013-07-15 01:58:00,76.0,74.2,29.33,SE,135,0.0,0.0,94,0.00,,---,0.00,0.00,VWS V14.01,2013-07-15 05:58:00,
2013-07-15 02:03:00,76.0,74.5,29.33,SE,135,0.0,0.0,95,0.00,,---,0.00,0.00,VWS V14.01,2013-07-15 06:03:00,
2013-07-15 02:08:00,76.0,74.8,29.33,SE,135,0.0,0.0,96,0.00,,---,0.00,0.00,VWS V14.01,2013-07-15 06:08:00,
2013-07-15 02:13:00,75.0,73.8,29.33,SE,135,0.0,0.0,96,0.00,,---,0.00,0.00,VWS V14.01,2013-07-15 06:13:00,
2013-07-15 02:18:00,75.0,74.1,29.34,SE,135,0.0,0.0,97,0.00,,---,0.00,0.00,VWS V14.01,2013-07-15 06:18:00,
2013-07-15 02:23:00,74.0,73.4,29.34,SE,135,0.0,0.0,98,0.00,,---,0.00,0.00,VWS V14.01,2013-07-15 06:23:00,
2013-07-15 02:28:00,74.0,73.4,29.34,SE,135,0.0,0.0,98,0.00,,---,0.00,0.00,VWS V14.01,2013-07-15 06:28:00,
2013-07-15 02:33:00,74.0,74.0,29.34,SE,135,0.0,0.0,100,0.00,,---,0.00,0.00,VWS V14.01,2013-07-15 06:33:00,
2013-07-15 02:38:00,74.0,74.0,29.34,SE,135,0.0,0.0,100,0.00,,---,0.00,0.00,VWS V14.01,2013-07-15 06:38:00,
2013-07-15 02:43:00,73.0,73.0,29.34,SE,135,0.0,0.0,100,0.00,,---,0.00,0.00,VWS V14.01,2013-07-15 06:43:00,
2013-07-15 02:48:00,74.0,74.0,29.33,SE,135,0.0,0.0,100,0.00,,---,0.00,0.00,VWS V14.01,2013-07-15 06:48:00,
2013-07-15 02:53:00,73.0,73.0,29.33,SE,135,0.0,0.0,100,0.00,,---,0.00,0.00,VWS V14.01,2013-07-15 06:53:00,
2013-07-15 02:58:00,73.0,73.0,29.34,SE,135,0.0,0.0,100,0.00,,---,0.00,0.00,VWS V14.01,2013-07-15 06:58:00,
2013-07-15 03:03:00,73.0,73.0,29.34,SE,135,0.0,0.0,100,0.00,,---,0.00,0.00,VWS V14.01,2013-07-15 07:03:00,
2013-07-15 03:08:00,73.0,73.0,29.35,SSE,157,0.0,0.0,100,0.00,,---,0.00,0.00,VWS V14.01,2013-07-15 07:08:00,
2013-07-15 03:13:00,73.0,73.0,29.35,South,180,0.0,0.0,100,0.00,,---,0.00,0.00,VWS V14.01,2013-07-15 07:13:00,
2013-07-15 03:18:00,73.0,73.0,29.35,SE,135,0.0,0.0,100,0.00,,---,0.00,0.00,VWS V14.01,2013-07-15 07:18:00,
2013-07-15 03:23:00,73.0,73.0,29.35,SSE,157,0.0,0.0,100,0.00,,---,0.00,0.00,VWS V14.01,2013-07-15 07:23:00,
2013-07-15 03:28:00,74.0,74.0,29.34,SSE,157,1.0,3.0,100,0.00,,---,0.00,0.00,VWS V14.01,2013-07-15 07:28:00,
2013-07-15 03:33:00,74.0,74.0,29.34,SE,135,0.0,0.0,100,0.00,,---,0.00,0.00,VWS V14.01,2013-07-15 07:33:00,
2013-07-15 03:38:00,74.0,74.0,29.34,SE,135,2.0,4.0,100,0.00,,---,0.00,0.00,VWS V14.01,2013-07-15 07:38:00,
2013-07-15 03:43:00,74.0,74.0,29.34,SE,135,1.0,3.0,100,0.00,,---,0.00,0.00,VWS V14.01,2013-07-15 07:43:00,
2013-07-15 03:48:00,74.0,74.0,29.34,SE,135,3.0,3.0,100,0.00,,---,0.00,0.00,VWS V14.01,2013-07-15 07:48:00,
2013-07-15 03:53:00,74.0,74.0,29.34,SE,135,1.0,4.0,100,0.00,,---,0.00,0.00,VWS V14.01,2013-07-15 07:53:00,
2013-07-15 03:58:00,74.0,74.0,29.34,South,180,0.0,3.0,100,0.00,,---,0.00,0.00,VWS V14.01,2013-07-15 07:58:00,
2013-07-15 04:03:00,74.0,74.0,29.34,SE,135,0.0,0.0,100,0.00,,---,0.00,0.00,VWS V14.01,2013-07-15 08:03:00,
2013-07-15 04:08:00,74.0,74.0,29.34,SE,135,0.0,0.0,100,0.00,,---,0.00,0.00,VWS V14.01,2013-07-15 08:08:00,
2013-07-15 04:13:00,74.0,74.0,29.34,South,180,2.0,4.0,100,0.00,,---,0.00,0.00,VWS V14.01,2013-07-15 08:13:00,
2013-07-15 04:18:00,74.0,74.0,29.35,East,90,1.0,3.0,100,0.00,,---,0.00,0.00,VWS V14.01,2013-07-15 08:18:00,
2013-07-15 04:23:00,74.0,74.0,29.35,SE,135,0.0,0.0,100,0.00,,---,0.00,0.00,VWS V14.01,2013-07-15 08:23:00,
2013-07-15 04:28:00,74.0,74.0,29.35,East,90,0.0,4.0,100,0.00,,---,0.00,0.00,VWS V14.01,2013-07-15 08:28:00,
2013-07-15 04:33:00,74.0,74.0,29.35,SSE,157,2.0,4.0,100,0.00,,---,0.00,0.00,VWS V14.01,2013-07-15 08:33:00,
2013-07-15 04:38:00,74.0,74.0,29.35,SE,135,3.0,4.0,100,0.00,,---,0.00,0.00,VWS V14.01,2013-07-15 08:38:00,
2013-07-15 04:43:00,74.0,74.0,29.35,SE,135,3.0,3.0,100,0.00,,---,0.00,0.00,VWS V14.01,2013-07-15 08:43:00,
2013-07-15 04:48:00,74.0,74.0,29.35,SSE,157,1.0,4.0,100,0.00,,---,0.00,0.00,VWS V14.01,2013-07-15 08:48:00,
2013-07-15 04:53:00,74.0,74.0,29.35,SE,135,0.0,3.0,100,0.00,,---,0.00,0.00,VWS V14.01,2013-07-15 08:53:00,
2013-07-15 04:58:00,74.0,74.0,29.35,South,180,0.0,3.0,100,0.00,,---,0.00,0.00,VWS V14.01,2013-07-15 08:58:00,
2013-07-15 05:03:00,73.0,73.0,29.35,South,180,2.0,5.0,100,0.00,,---,0.00,0.00,VWS V14.01,2013-07-15 09:03:00,
2013-07-15 05:08:00,74.0,74.0,29.35,SE,135,0.0,0.0,100,0.00,,---,0.00,0.00,VWS V14.01,2013-07-15 09:08:00,
2013-07-15 05:13:00,73.0,73.0,29.35,SE,135,0.0,0.0,100,0.00,,---,0.00,0.00,VWS V14.01,2013-07-15 09:13:00,
2013-07-15 05:18:00,73.0,73.0,29.36,SE,135,0.0,0.0,100,0.00,,---,0.00,0.00,VWS V14.01,2013-07-15 09:18:00,
2013-07-15 05:23:00,73.0,73.0,29.36,SE,135,0.0,0.0,100,0.00,,---,0.00,0.00,VWS V14.01,2013-07-15 09:23:00,
2013-07-15 05:28:00,73.0,73.0,29.37,East,90,0.0,0.0,100,0.00,,---,0.00,0.00,VWS V14.01,2013-07-15 09:28:00,
2013-07-15 05:33:00,73.0,73.0,29.37,East,90,0.0,0.0,100,0.00,,---,0.00,0.00,VWS V14.01,2013-07-15 09:33:00,
2013-07-15 05:38:00,73.0,73.0,29.37,East,90,0.0,0.0,100,0.00,,---,0.00,0.00,VWS V14.01,2013-07-15 09:38:00,
2013-07-15 05:43:00,72.0,72.0,29.37,North,360,0.0,0.0,100,0.00,,---,0.00,0.00,VWS V14.01,2013-07-15 09:43:00,
2013-07-15 05:48:00,72.0,72.0,29.37,NNW,337,0.0,0.0,100,0.00,,---,0.00,0.00,VWS V14.01,2013-07-15 09:48:00,
2013-07-15 05:53:00,71.0,71.0,29.37,NNW,337,0.0,0.0,100,0.00,,---,0.00,0.00,VWS V14.01,2013-07-15 09:53:00,
2013-07-15 05:58:00,71.0,71.0,29.37,NNW,337,0.0,0.0,100,0.00,,---,0.00,0.00,VWS V14.01,2013-07-15 09:58:00,
2013-07-15 06:04:00,71.0,71.0,29.37,NNW,337,0.0,0.0,100,0.00,,---,0.00,0.00,VWS V14.01,2013-07-15 10:04:00,
2013-07-15 06:09:00,71.0,71.0,29.38,NNW,337,0.0,0.0,100,0.00,,---,0.00,0.00,VWS V14.01,2013-07-15 10:09:00,
2013-07-15 06:14:00,71.0,71.0,29.38,NNW,337,0.0,0.0,100,0.00,,---,0.00,0.00,VWS V14.01,2013-07-15 10:14:00,
2013-07-15 06:19:00,71.0,71.0,29.39,NNW,337,0.0,0.0,100,0.00,,---,0.00,0.00,VWS V14.01,2013-07-15 10:19:00,
2013-07-15 06:24:00,71.0,71.0,29.39,South,180,0.0,0.0,100,0.00,,---,0.00,0.00,VWS V14.01,2013-07-15 10:24:00,
2013-07-15 06:29:00,71.0,71.0,29.39,South,180,0.0,0.0,100,0.00,,---,0.00,0.00,VWS V14.01,2013-07-15 10:29:00,
2013-07-15 06:34:00,71.0,71.0,29.39,ESE,112,0.0,0.0,100,0.00,,---,0.00,0.00,VWS V14.01,2013-07-15 10:34:00,
2013-07-15 06:39:00,71.0,71.0,29.39,SE,135,0.0,0.0,100,0.00,,---,0.00,0.00,VWS V14.01,2013-07-15 10:39:00,
2013-07-15 06:44:00,71.0,71.0,29.39,SE,135,0.0,2.0,100,0.00,,---,0.00,0.00,VWS V14.01,2013-07-15 10:44:00,
2013-07-15 06:49:00,72.0,72.0,29.39,SE,135,0.0,2.0,100,0.00,,---,0.00,0.00,VWS V14.01,2013-07-15 10:49:00,
2013-07-15 06:54:00,72.0,72.0,29.39,SE,135,0.0,0.0,100,0.00,,---,0.00,0.00,VWS V14.01,2013-07-15 10:54:00,
2013-07-15 06:59:00,72.0,72.0,29.39,SE,135,0.0,0.0,100,0.00,,---,0.00,0.00,VWS V14.01,2013-07-15 10:59:00,
2013-07-15 07:04:00,72.0,72.0,29.39,SE,135,1.0,3.0,100,0.00,,---,0.00,0.00,VWS V14.01,2013-07-15 11:04:00,
2013-07-15 07:09:00,72.0,72.0,29.39,South,180,3.0,3.0,100,0.00,,---,0.00,0.00,VWS V14.01,2013-07-15 11:09:00,
2013-07-15 07:14:00,72.0,72.0,29.39,SSE,157,3.0,3.0,100,0.00,,---,0.00,0.00,VWS V14.01,2013-07-15 11:14:00,
2013-07-15 07:19:00,72.0,72.0,29.39,SSE,157,3.0,4.0,100,0.00,,---,0.00,0.00,VWS V14.01,2013-07-15 11:19:00,
2013-07-15 07:24:00,72.0,72.0,29.39,South,180,3.0,3.0,100,0.00,,---,0.00,0.00,VWS V14.01,2013-07-15 11:24:00,
2013-07-15 07:29:00,73.0,73.0,29.39,SSE,157,5.0,7.0,100,0.00,,---,0.00,0.00,VWS V14.01,2013-07-15 11:29:00,
2013-07-15 07:34:00,74.0,74.0,29.39,SE,135,3.0,3.0,100,0.00,,---,0.00,0.00,VWS V14.01,2013-07-15 11:34:00,
2013-07-15 07:39:00,74.0,73.7,29.39,SE,135,0.0,4.0,99,0.00,,---,0.00,0.00,VWS V14.01,2013-07-15 11:39:00,
2013-07-15 07:44:00,75.0,73.8,29.39,South,180,3.0,5.0,96,0.00,,---,0.00,0.00,VWS V14.01,2013-07-15 11:44:00,
2013-07-15 07:49:00,75.0,72.8,29.38,South,180,2.0,4.0,93,0.00,,---,0.00,0.00,VWS V14.01,2013-07-15 11:49:00,
2013-07-15 07:54:00,75.0,72.5,29.38,SE,135,5.0,5.0,92,0.00,,---,0.00,0.00,VWS V14.01,2013-07-15 11:54:00,
2013-07-15 07:59:00,75.0,72.5,29.38,SE,135,5.0,6.0,92,0.00,,---,0.00,0.00,VWS V14.01,2013-07-15 11:59:00,
2013-07-15 08:04:00,75.0,72.5,29.38,SE,135,4.0,6.0,92,0.00,,---,0.00,0.00,VWS V14.01,2013-07-15 12:04:00,
2013-07-15 08:09:00,75.0,72.2,29.39,South,180,3.0,7.0,91,0.00,,---,0.00,0.00,VWS V14.01,2013-07-15 12:09:00,
2013-07-15 08:14:00,76.0,73.2,29.39,SE,135,3.0,6.0,91,0.00,,---,0.00,0.00,VWS V14.01,2013-07-15 12:14:00,
2013-07-15 08:19:00,77.0,73.5,29.39,SSE,157,3.0,4.0,89,0.00,,---,0.00,0.00,VWS V14.01,2013-07-15 12:19:00,
2013-07-15 08:24:00,77.0,72.8,29.39,SE,135,6.0,6.0,87,0.00,,---,0.00,0.00,VWS V14.01,2013-07-15 12:24:00,
2013-07-15 08:29:00,77.0,73.2,29.38,SE,135,2.0,4.0,88,0.00,,---,0.00,0.00,VWS V14.01,2013-07-15 12:29:00,
2013-07-15 08:34:00,78.0,73.5,29.38,South,180,4.0,4.0,86,0.00,,---,0.00,0.00,VWS V14.01,2013-07-15 12:34:00,
2013-07-15 08:39:00,79.0,73.4,29.37,ESE,112,4.0,4.0,83,0.00,,---,0.00,0.00,VWS V14.01,2013-07-15 12:39:00,
2013-07-15 08:44:00,79.0,72.7,29.37,West,270,0.0,7.0,81,0.00,,---,0.00,0.00,VWS V14.01,2013-07-15 12:44:00,
2013-07-15 08:49:00,79.0,72.7,29.37,SE,135,5.0,9.0,81,0.00,,---,0.00,0.00,VWS V14.01,2013-07-15 12:49:00,
2013-07-15 08:54:00,79.0,73.0,29.37,South,180,0.0,7.0,82,0.00,,---,0.00,0.00,VWS V14.01,2013-07-15 12:54:00,
2013-07-15 08:59:00,79.0,73.4,29.37,SE,135,4.0,6.0,83,0.00,,---,0.00,0.00,VWS V14.01,2013-07-15 12:59:00,
2013-07-15 09:04:00,80.0,72.9,29.37,South,180,5.0,7.0,79,0.00,,---,0.00,0.00,VWS V14.01,2013-07-15 13:04:00,
2013-07-15 09:09:00,80.0,73.3,29.37,ESE,112,4.0,4.0,80,0.00,,---,0.00,0.00,VWS V14.01,2013-07-15 13:09:00,
2013-07-15 09:14:00,81.0,72.7,29.37,SW,225,1.0,6.0,76,0.00,,---,0.00,0.00,VWS V14.01,2013-07-15 13:14:00,
2013-07-15 09:19:00,81.0,73.5,29.37,SE,135,3.0,4.0,78,0.00,,---,0.00,0.00,VWS V14.01,2013-07-15 13:19:00,
2013-07-15 09:24:00,80.0,73.3,29.37,South,180,3.0,5.0,80,0.00,,---,0.00,0.00,VWS V14.01,2013-07-15 13:24:00,
2013-07-15 09:29:00,81.0,72.7,29.36,SE,135,3.0,4.0,76,0.00,,---,0.00,0.00,VWS V14.01,2013-07-15 13:29:00,
2013-07-15 09:34:00,81.0,72.7,29.36,South,180,3.0,5.0,76,0.00,,---,0.00,0.00,VWS V14.01,2013-07-15 13:34:00,
2013-07-15 09:39:00,81.0,72.7,29.36,SE,135,0.0,3.0,76,0.00,,---,0.00,0.00,VWS V14.01,2013-07-15 13:39:00,
2013-07-15 09:44:00,82.0,72.9,29.36,ENE,67,5.0,6.0,74,0.00,,---,0.00,0.00,VWS V14.01,2013-07-15 13:44:00,
2013-07-15 09:49:00,82.0,72.1,29.36,SE,135,0.0,3.0,72,0.00,,---,0.00,0.00,VWS V14.01,2013-07-15 13:49:00,
2013-07-15 09:54:00,83.0,72.6,29.36,South,180,2.0,5.0,71,0.00,,---,0.00,0.00,VWS V14.01,2013-07-15 13:54:00,
2013-07-15 10:31:00,85.0,74.1,29.35,SW,225,0.0,0.0,70,0.00,,---,0.00,0.00,VWS V14.01,2013-07-15 14:31:00,
2013-07-15 10:36:00,85.0,72.8,29.35,South,180,3.0,4.0,67,0.00,,---,0.00,0.00,VWS V14.01,2013-07-15 14:36:00,
2013-07-15 10:41:00,84.0,71.9,29.34,SE,135,3.0,5.0,67,0.00,,---,0.00,0.00,VWS V14.01,2013-07-15 14:41:00,
2013-07-15 10:46:00,85.0,71.9,29.34,SSE,157,2.0,4.0,65,0.00,,---,0.00,0.00,VWS V14.01,2013-07-15 14:46:00,
2013-07-15 10:52:00,85.0,71.0,29.34,SSE,157,0.0,3.0,63,0.00,,---,0.00,0.00,VWS V14.01,2013-07-15 14:52:00,
2013-07-15 10:57:00,85.0,70.1,29.34,SSW,202,1.0,7.0,61,0.00,,---,0.00,0.00,VWS V14.01,2013-07-15 14:57:00,
2013-07-15 11:02:00,86.0,71.5,29.34,South,180,4.0,4.0,62,0.00,,---,0.00,0.00,VWS V14.01,2013-07-15 15:02:00,
2013-07-15 11:07:00,86.0,71.0,29.34,SW,225,0.0,3.0,61,0.00,,---,0.00,0.00,VWS V14.01,2013-07-15 15:07:00,
2013-07-15 11:12:00,86.0,70.5,29.34,South,180,4.0,5.0,60,0.00,,---,0.00,0.00,VWS V14.01,2013-07-15 15:12:00,
2013-07-15 11:17:00,86.0,71.0,29.34,South,180,5.0,6.0,61,0.00,,---,0.00,0.00,VWS V14.01,2013-07-15 15:17:00,
2013-07-15 11:22:00,86.0,71.5,29.35,South,180,0.0,3.0,62,0.00,,---,0.00,0.00,VWS V14.01,2013-07-15 15:22:00,
2013-07-15 11:27:00,86.0,71.9,29.35,SW,225,4.0,5.0,63,0.00,,---,0.00,0.00,VWS V14.01,2013-07-15 15:27:00,
2013-07-15 11:32:00,86.0,71.0,29.35,East,90,0.0,5.0,61,0.00,,---,0.00,0.00,VWS V14.01,2013-07-15 15:32:00,
2013-07-15 11:37:00,85.0,70.5,29.35,ESE,112,3.0,9.0,62,0.00,,---,0.00,0.00,VWS V14.01,2013-07-15 15:37:00,
2013-07-15 11:42:00,86.0,71.0,29.35,South,180,0.0,0.0,61,0.00,,---,0.00,0.00,VWS V14.01,2013-07-15 15:42:00,
2013-07-15 11:47:00,87.0,70.4,29.35,South,180,4.0,5.0,58,0.00,,---,0.00,0.00,VWS V14.01,2013-07-15 15:47:00,
2013-07-15 11:52:00,86.0,70.0,29.34,ESE,112,0.0,3.0,59,0.00,,---,0.00,0.00,VWS V14.01,2013-07-15 15:52:00,
2013-07-15 11:57:00,86.0,70.0,29.34,SE,135,4.0,5.0,59,0.00,,---,0.00,0.00,VWS V14.01,2013-07-15 15:57:00,
2013-07-15 12:03:00,85.0,69.6,29.34,SSE,157,0.0,6.0,60,0.00,,---,0.00,0.00,VWS V14.01,2013-07-15 16:03:00,
2013-07-15 12:08:00,84.0,68.1,29.34,SE,135,4.0,7.0,59,0.00,,---,0.00,0.00,VWS V14.01,2013-07-15 16:08:00,
2013-07-15 12:13:00,85.0,70.5,29.34,SSE,157,3.0,3.0,62,0.00,,---,0.00,0.00,VWS V14.01,2013-07-15 16:13:00,
2013-07-15 12:18:00,85.0,69.1,29.34,SE,135,5.0,6.0,59,0.00,,---,0.00,0.00,VWS V14.01,2013-07-15 16:18:00,
2013-07-15 12:23:00,86.0,69.0,29.34,East,90,4.0,4.0,57,0.00,,---,0.00,0.00,VWS V14.01,2013-07-15 16:23:00,
2013-07-15 12:28:00,86.0,69.0,29.34,SE,135,6.0,9.0,57,0.00,,---,0.00,0.00,VWS V14.01,2013-07-15 16:28:00,
2013-07-15 12:33:00,86.0,69.5,29.34,East,90,3.0,7.0,58,0.00,,---,0.00,0.00,VWS V14.01,2013-07-15 16:33:00,
2013-07-15 12:38:00,86.0,69.5,29.34,South,180,3.0,8.0,58,0.00,,---,0.00,0.00,VWS V14.01,2013-07-15 16:38:00,
2013-07-15 12:43:00,86.0,69.5,29.34,South,180,1.0,5.0,58,0.00,,---,0.00,0.00,VWS V14.01,2013-07-15 16:43:00,
2013-07-15 12:48:00,86.0,69.0,29.34,SE,135,0.0,3.0,57,0.00,,---,0.00,0.00,VWS V14.01,2013-07-15 16:48:00,
2013-07-15 12:53:00,85.0,69.1,29.34,South,180,0.0,0.0,59,0.00,,---,0.00,0.00,VWS V14.01,2013-07-15 16:53:00,
2013-07-15 12:58:00,87.0,69.9,29.35,SSW,202,0.0,0.0,57,0.00,,---,0.00,0.00,VWS V14.01,2013-07-15 16:58:00,
2013-07-15 13:03:00,87.0,68.9,29.35,SE,135,0.0,0.0,55,0.00,,---,0.00,0.00,VWS V14.01,2013-07-15 17:03:00,
2013-07-15 13:08:00,88.0,69.8,29.35,South,180,3.0,6.0,55,0.00,,---,0.00,0.00,VWS V14.01,2013-07-15 17:08:00,
2013-07-15 13:14:00,85.0,70.1,29.35,SE,135,3.0,7.0,61,0.00,,---,0.00,0.00,VWS V14.01,2013-07-15 17:14:00,
2013-07-15 13:19:00,86.0,70.0,29.34,SSE,157,4.0,6.0,59,0.00,,---,0.00,0.00,VWS V14.01,2013-07-15 17:19:00,
2013-07-15 13:24:00,85.0,69.1,29.34,East,90,4.0,7.0,59,0.00,,---,0.00,0.00,VWS V14.01,2013-07-15 17:24:00,
2013-07-15 13:29:00,86.0,69.5,29.35,NW,315,0.0,3.0,58,0.00,,---,0.00,0.00,VWS V14.01,2013-07-15 17:29:00,
2013-07-15 13:34:00,87.0,70.9,29.35,East,90,5.0,5.0,59,0.00,,---,0.00,0.00,VWS V14.01,2013-07-15 17:34:00,
2013-07-15 13:39:00,88.0,70.3,29.33,SE,135,5.0,7.0,56,0.00,,---,0.00,0.00,VWS V14.01,2013-07-15 17:39:00,
2013-07-15 13:44:00,88.0,70.3,29.33,ESE,112,2.0,3.0,56,0.00,,---,0.00,0.00,VWS V14.01,2013-07-15 17:44:00,
2013-07-15 13:49:00,87.0,70.4,29.33,SSW,202,0.0,0.0,58,0.00,,---,0.00,0.00,VWS V14.01,2013-07-15 17:49:00,
2013-07-15 13:54:00,88.0,69.3,29.33,South,180,6.0,7.0,54,0.00,,---,0.00,0.00,VWS V14.01,2013-07-15 17:54:00,
2013-07-15 13:59:00,86.0,70.0,29.33,SSE,157,0.0,4.0,59,0.00,,---,0.00,0.00,VWS V14.01,2013-07-15 17:59:00,
2013-07-15 14:05:00,86.0,71.0,29.33,South,180,0.0,3.0,61,0.00,,---,0.00,0.00,VWS V14.01,2013-07-15 18:05:00,
2013-07-15 14:10:00,86.0,71.9,29.34,SE,135,3.0,5.0,63,0.00,,---,0.00,0.00,VWS V14.01,2013-07-15 18:10:00,
2013-07-15 14:15:00,87.0,70.9,29.34,East,90,6.0,7.0,59,0.00,,---,0.00,0.00,VWS V14.01,2013-07-15 18:15:00,
2013-07-15 14:20:00,87.0,68.9,29.34,SW,225,5.0,6.0,55,0.00,,---,0.00,0.00,VWS V14.01,2013-07-15 18:20:00,
2013-07-15 14:25:00,88.0,70.3,29.34,SW,225,0.0,0.0,56,0.00,,---,0.00,0.00,VWS V14.01,2013-07-15 18:25:00,
2013-07-15 14:30:00,88.0,71.4,29.33,SE,135,4.0,6.0,58,0.00,,---,0.00,0.00,VWS V14.01,2013-07-15 18:30:00,
2013-07-15 14:35:00,88.0,72.4,29.33,NNW,337,0.0,1.0,60,0.00,,---,0.00,0.00,VWS V14.01,2013-07-15 18:35:00,
2013-07-15 14:40:00,89.0,71.3,29.33,SW,225,3.0,5.0,56,0.00,,---,0.00,0.00,VWS V14.01,2013-07-15 18:40:00,
2013-07-15 14:45:00,89.0,70.2,29.33,ESE,112,7.0,7.0,54,0.00,,---,0.00,0.00,VWS V14.01,2013-07-15 18:45:00,
2013-07-15 14:51:00,88.0,70.9,29.32,ESE,112,4.0,4.0,57,0.00,,---,0.00,0.00,VWS V14.01,2013-07-15 18:51:00,
2013-07-15 14:56:00,88.0,71.4,29.32,SSE,157,4.0,6.0,58,0.00,,---,0.00,0.00,VWS V14.01,2013-07-15 18:56:00,
2013-07-15 15:01:00,87.0,70.9,29.32,SE,135,3.0,7.0,59,0.00,,---,0.00,0.00,VWS V14.01,2013-07-15 19:01:00,
2013-07-15 15:06:00,88.0,71.9,29.32,South,180,3.0,3.0,59,0.00,,---,0.00,0.00,VWS V14.01,2013-07-15 19:06:00,
2013-07-15 15:11:00,89.0,70.8,29.32,SE,135,5.0,6.0,55,0.00,,---,0.00,0.00,VWS V14.01,2013-07-15 19:11:00,
2013-07-15 15:16:00,87.0,70.9,29.32,SE,135,8.0,8.0,59,0.00,,---,0.00,0.00,VWS V14.01,2013-07-15 19:16:00,
2013-07-15 15:21:00,87.0,70.9,29.32,ESE,112,5.0,5.0,59,0.00,,---,0.00,0.00,VWS V14.01,2013-07-15 19:21:00,
2013-07-15 15:26:00,88.0,70.3,29.32,South,180,4.0,5.0,56,0.00,,---,0.00,0.00,VWS V14.01,2013-07-15 19:26:00,
2013-07-15 15:32:00,87.0,70.4,29.32,East,90,1.0,1.0,58,0.00,,---,0.00,0.00,VWS V14.01,2013-07-15 19:32:00,
2013-07-15 15:37:00,86.0,71.5,29.32,East,90,1.0,3.0,62,0.00,,---,0.00,0.00,VWS V14.01,2013-07-15 19:37:00,
2013-07-15 15:42:00,86.0,71.5,29.33,South,180,3.0,5.0,62,0.00,,---,0.00,0.00,VWS V14.01,2013-07-15 19:42:00,
2013-07-15 15:47:00,87.0,70.9,29.33,SE,135,6.0,7.0,59,0.00,,---,0.00,0.00,VWS V14.01,2013-07-15 19:47:00,
2013-07-15 15:52:00,87.0,71.4,29.32,ESE,112,3.0,4.0,60,0.00,,---,0.00,0.00,VWS V14.01,2013-07-15 19:52:00,
2013-07-15 15:57:00,88.0,72.4,29.32,SE,135,5.0,5.0,60,0.00,,---,0.00,0.00,VWS V14.01,2013-07-15 19:57:00,
2013-07-15 16:02:00,87.0,70.4,29.31,SSE,157,4.0,4.0,58,0.00,,---,0.00,0.00,VWS V14.01,2013-07-15 20:02:00,
2013-07-15 16:07:00,86.0,70.5,29.31,SE,135,4.0,5.0,60,0.00,,---,0.00,0.00,VWS V14.01,2013-07-15 20:07:00,
2013-07-15 16:12:00,87.0,70.4,29.31,SE,135,0.0,0.0,58,0.00,,---,0.00,0.00,VWS V14.01,2013-07-15 20:12:00,
2013-07-15 16:18:00,88.0,73.4,29.31,WSW,247,0.0,0.0,62,0.00,,---,0.00,0.00,VWS V14.01,2013-07-15 20:18:00,
2013-07-15 16:23:00,87.0,71.4,29.31,South,180,3.0,4.0,60,0.00,,---,0.00,0.00,VWS V14.01,2013-07-15 20:23:00,
2013-07-15 16:28:00,89.0,70.2,29.30,SSE,157,0.0,3.0,54,0.00,,---,0.00,0.00,VWS V14.01,2013-07-15 20:28:00,
2013-07-15 16:33:00,88.0,69.3,29.30,SE,135,4.0,4.0,54,0.00,,---,0.00,0.00,VWS V14.01,2013-07-15 20:33:00,
2013-07-15 16:38:00,90.0,73.8,29.31,SW,225,0.0,0.0,59,0.00,,---,0.00,0.00,VWS V14.01,2013-07-15 20:38:00,
2013-07-15 16:43:00,90.0,70.6,29.31,SSE,157,0.0,0.0,53,0.00,,---,0.00,0.00,VWS V14.01,2013-07-15 20:43:00,
2013-07-15 16:48:00,91.0,71.5,29.29,SSW,202,0.0,6.0,53,0.00,,---,0.00,0.00,VWS V14.01,2013-07-15 20:48:00,
2013-07-15 16:53:00,90.0,70.6,29.29,SSE,157,4.0,5.0,53,0.00,,---,0.00,0.00,VWS V14.01,2013-07-15 20:53:00,
2013-07-15 16:59:00,91.0,70.9,29.29,SE,135,0.0,0.0,52,0.00,,---,0.00,0.00,VWS V14.01,2013-07-15 20:59:00,
2013-07-15 17:04:00,91.0,69.2,29.29,ESE,112,3.0,6.0,49,0.00,,---,0.00,0.00,VWS V14.01,2013-07-15 21:04:00,
2013-07-15 17:09:00,89.0,70.2,29.29,South,180,6.0,6.0,54,0.00,,---,0.00,0.00,VWS V14.01,2013-07-15 21:09:00,
2013-07-15 17:14:00,87.0,71.4,29.29,SSE,157,3.0,3.0,60,0.00,,---,0.00,0.00,VWS V14.01,2013-07-15 21:14:00,
2013-07-15 17:20:00,86.0,71.5,29.31,SE,135,0.0,0.0,62,0.00,,---,0.00,0.00,VWS V14.01,2013-07-15 21:20:00,
2013-07-15 17:25:00,88.0,71.4,29.31,South,180,0.0,0.0,58,0.00,,---,0.00,0.00,VWS V14.01,2013-07-15 21:25:00,
2013-07-15 17:30:00,89.0,71.3,29.30,SE,135,4.0,4.0,56,0.00,,---,0.00,0.00,VWS V14.01,2013-07-15 21:30:00,
2013-07-15 17:35:00,89.0,70.8,29.30,SSE,157,4.0,5.0,55,0.00,,---,0.00,0.00,VWS V14.01,2013-07-15 21:35:00,
2013-07-15 17:41:00,89.0,71.8,29.30,SSW,202,0.0,0.0,57,0.00,,---,0.00,0.00,VWS V14.01,2013-07-15 21:41:00,
2013-07-15 17:46:00,88.0,70.9,29.30,SE,135,6.0,9.0,57,0.00,,---,0.00,0.00,VWS V14.01,2013-07-15 21:46:00,
2013-07-15 17:51:00,87.0,69.9,29.29,South,180,3.0,5.0,57,0.00,,---,0.00,0.00,VWS V14.01,2013-07-15 21:51:00,
2013-07-15 17:56:00,89.0,70.8,29.29,SE,135,4.0,5.0,55,0.00,,---,0.00,0.00,VWS V14.01,2013-07-15 21:56:00,
2013-07-15 18:01:00,88.0,71.9,29.29,SE,135,5.0,5.0,59,0.00,,---,0.00,0.00,VWS V14.01,2013-07-15 22:01:00,
2013-07-15 18:06:00,88.0,69.3,29.29,SE,135,0.0,4.0,54,0.00,,---,0.00,0.00,VWS V14.01,2013-07-15 22:06:00,
2013-07-15 18:12:00,89.0,71.3,29.29,SE,135,5.0,6.0,56,0.00,,---,0.00,0.00,VWS V14.01,2013-07-15 22:12:00,
2013-07-15 18:17:00,89.0,70.8,29.29,South,180,3.0,4.0,55,0.00,,---,0.00,0.00,VWS V14.01,2013-07-15 22:17:00,
2013-07-15 18:22:00,89.0,72.8,29.29,ESE,112,0.0,0.0,59,0.00,,---,0.00,0.00,VWS V14.01,2013-07-15 22:22:00,
2013-07-15 18:27:00,89.0,71.3,29.29,SE,135,2.0,6.0,56,0.00,,---,0.00,0.00,VWS V14.01,2013-07-15 22:27:00,
2013-07-15 18:32:00,87.0,70.9,29.29,SE,135,3.0,4.0,59,0.00,,---,0.00,0.00,VWS V14.01,2013-07-15 22:32:00,
2013-07-15 18:37:00,87.0,70.9,29.29,SE,135,3.0,5.0,59,0.00,,---,0.00,0.00,VWS V14.01,2013-07-15 22:37:00,
2013-07-15 18:42:00,87.0,70.4,29.29,SSE,157,3.0,5.0,58,0.00,,---,0.00,0.00,VWS V14.01,2013-07-15 22:42:00,
2013-07-15 18:47:00,87.0,70.4,29.29,SE,135,3.0,4.0,58,0.00,,---,0.00,0.00,VWS V14.01,2013-07-15 22:47:00,
2013-07-15 18:53:00,87.0,69.4,29.29,SSE,157,4.0,5.0,56,0.00,,---,0.00,0.00,VWS V14.01,2013-07-15 22:53:00,
2013-07-15 18:57:00,87.0,69.4,29.29,SE,135,4.0,6.0,56,0.00,,---,0.00,0.00,VWS V14.01,2013-07-15 22:57:00,
2013-07-15 19:03:00,86.0,69.5,29.29,SE,135,5.0,7.0,58,0.00,,---,0.00,0.00,VWS V14.01,2013-07-15 23:03:00,
2013-07-15 19:08:00,86.0,70.0,29.30,SE,135,2.0,3.0,59,0.00,,---,0.00,0.00,VWS V14.01,2013-07-15 23:08:00,
2013-07-15 19:13:00,85.0,70.1,29.30,SE,135,0.0,3.0,61,0.00,,---,0.00,0.00,VWS V14.01,2013-07-15 23:13:00,
2013-07-15 19:18:00,85.0,71.0,29.31,South,180,0.0,0.0,63,0.00,,---,0.00,0.00,VWS V14.01,2013-07-15 23:18:00,
2013-07-15 19:23:00,84.0,69.6,29.31,SSE,157,0.0,4.0,62,0.00,,---,0.00,0.00,VWS V14.01,2013-07-15 23:23:00,
2013-07-15 19:28:00,84.0,70.5,29.31,SSW,202,0.0,0.0,64,0.00,,---,0.00,0.00,VWS V14.01,2013-07-15 23:28:00,
2013-07-15 19:33:00,84.0,71.0,29.31,ESE,112,0.0,4.0,65,0.00,,---,0.00,0.00,VWS V14.01,2013-07-15 23:33:00,
2013-07-15 19:38:00,84.0,71.0,29.31,SE,135,0.0,2.0,65,0.00,,---,0.00,0.00,VWS V14.01,2013-07-15 23:38:00,
2013-07-15 19:43:00,83.0,68.2,29.31,SE,135,3.0,6.0,61,0.00,,---,0.00,0.00,VWS V14.01,2013-07-15 23:43:00,
2013-07-15 19:48:00,84.0,70.1,29.31,SE,135,0.0,2.0,63,0.00,,---,0.00,0.00,VWS V14.01,2013-07-15 23:48:00,
2013-07-15 19:53:00,83.0,69.1,29.31,South,180,2.0,2.0,63,0.00,,---,0.00,0.00,VWS V14.01,2013-07-15 23:53:00,
2013-07-15 19:58:00,83.0,70.0,29.31,SE,135,0.0,0.0,65,0.00,,---,0.00,0.00,VWS V14.01,2013-07-15 23:58:00,
2013-07-15 20:03:00,83.0,70.9,29.31,SE,135,0.0,0.0,67,0.00,,---,0.00,0.00,VWS V14.01,2013-07-16 00:03:00,
2013-07-15 20:08:00,82.0,70.0,29.33,SE,135,0.0,0.0,67,0.00,,---,0.00,0.00,VWS V14.01,2013-07-16 00:08:00,
2013-07-15 20:13:00,82.0,70.8,29.33,South,180,0.0,0.0,69,0.00,,---,0.00,0.00,VWS V14.01,2013-07-16 00:13:00,
2013-07-15 20:18:00,82.0,71.7,29.33,South,180,0.0,0.0,71,0.00,,---,0.00,0.00,VWS V14.01,2013-07-16 00:18:00,
2013-07-15 20:23:00,81.0,71.1,29.33,South,180,0.0,0.0,72,0.00,,---,0.00,0.00,VWS V14.01,2013-07-16 00:23:00,
2013-07-15 20:28:00,80.0,71.0,29.33,South,180,0.0,0.0,74,0.00,,---,0.00,0.00,VWS V14.01,2013-07-16 00:28:00,
2013-07-15 20:33:00,80.0,71.8,29.33,South,180,0.0,0.0,76,0.00,,---,0.00,0.00,VWS V14.01,2013-07-16 00:33:00,
2013-07-15 20:38:00,79.0,70.4,29.34,South,180,0.0,0.0,75,0.00,,---,0.00,0.00,VWS V14.01,2013-07-16 00:38:00,
2013-07-15 20:43:00,79.0,72.3,29.34,WSW,247,0.0,0.0,80,0.00,,---,0.00,0.00,VWS V14.01,2013-07-16 00:43:00,
2013-07-15 20:48:00,78.0,71.7,29.35,South,180,0.0,0.0,81,0.00,,---,0.00,0.00,VWS V14.01,2013-07-16 00:48:00,
2013-07-15 20:54:00,78.0,71.7,29.35,NE,45,0.0,0.0,81,0.00,,---,0.00,0.00,VWS V14.01,2013-07-16 00:54:00,
2013-07-15 20:59:00,77.0,72.2,29.35,ENE,67,0.0,0.0,85,0.00,,---,0.00,0.00,VWS V14.01,2013-07-16 00:59:00,
2013-07-15 21:04:00,77.0,72.2,29.35,ENE,67,0.0,0.0,85,0.00,,---,0.00,0.00,VWS V14.01,2013-07-16 01:04:00,
2013-07-15 21:09:00,76.0,71.2,29.36,ENE,67,0.0,0.0,85,0.00,,---,0.00,0.00,VWS V14.01,2013-07-16 01:09:00,
2013-07-15 21:14:00,76.0,71.2,29.36,ENE,67,0.0,0.0,85,0.00,,---,0.00,0.00,VWS V14.01,2013-07-16 01:14:00,
2013-07-15 21:19:00,76.0,71.2,29.36,ENE,67,0.0,0.0,85,0.00,,---,0.00,0.00,VWS V14.01,2013-07-16 01:19:00,
2013-07-15 21:24:00,75.0,70.2,29.36,ENE,67,0.0,0.0,85,0.00,,---,0.00,0.00,VWS V14.01,2013-07-16 01:24:00,
2013-07-15 21:29:00,75.0,70.5,29.37,ENE,67,0.0,0.0,86,0.00,,---,0.00,0.00,VWS V14.01,2013-07-16 01:29:00,
2013-07-15 21:34:00,74.0,69.9,29.37,ENE,67,0.0,0.0,87,0.00,,---,0.00,0.00,VWS V14.01,2013-07-16 01:34:00,
2013-07-15 21:39:00,74.0,71.2,29.37,ENE,67,0.0,0.0,91,0.00,,---,0.00,0.00,VWS V14.01,2013-07-16 01:39:00,
2013-07-15 21:45:00,74.0,71.5,29.37,ENE,67,0.0,0.0,92,0.00,,---,0.00,0.00,VWS V14.01,2013-07-16 01:45:00,
2013-07-15 21:50:00,73.0,72.7,29.38,ENE,67,0.0,0.0,99,0.00,,---,0.00,0.00,VWS V14.01,2013-07-16 01:50:00,
2013-07-15 21:55:00,73.0,72.1,29.38,ENE,67,0.0,0.0,97,0.00,,---,0.00,0.00,VWS V14.01,2013-07-16 01:55:00,
2013-07-15 22:00:00,73.0,71.8,29.39,ENE,67,0.0,0.0,96,0.00,,---,0.00,0.00,VWS V14.01,2013-07-16 02:00:00,
2013-07-15 22:05:00,73.0,71.8,29.39,ENE,67,0.0,0.0,96,0.00,,---,0.00,0.00,VWS V14.01,2013-07-16 02:05:00,
2013-07-15 22:10:00,73.0,71.2,29.39,ENE,67,0.0,0.0,94,0.00,,---,0.00,0.00,VWS V14.01,2013-07-16 02:10:00,
2013-07-15 22:16:00,73.0,71.8,29.39,ENE,67,0.0,0.0,96,0.00,,---,0.00,0.00,VWS V14.01,2013-07-16 02:16:00,
2013-07-15 22:21:00,72.0,71.1,29.40,ENE,67,0.0,0.0,97,0.00,,---,0.00,0.00,VWS V14.01,2013-07-16 02:21:00,
2013-07-15 22:26:00,72.0,71.4,29.40,ENE,67,0.0,0.0,98,0.00,,---,0.00,0.00,VWS V14.01,2013-07-16 02:26:00,
2013-07-15 22:31:00,72.0,70.8,29.40,ENE,67,0.0,0.0,96,0.00,,---,0.00,0.00,VWS V14.01,2013-07-16 02:31:00,
2013-07-15 22:37:00,72.0,72.0,29.40,ENE,67,0.0,0.0,100,0.00,,---,0.00,0.00,VWS V14.01,2013-07-16 02:37:00,
2013-07-15 22:42:00,72.0,72.0,29.41,ENE,67,0.0,0.0,100,0.00,,---,0.00,0.00,VWS V14.01,2013-07-16 02:42:00,
2013-07-15 22:47:00,72.0,72.0,29.41,ENE,67,0.0,0.0,100,0.00,,---,0.00,0.00,VWS V14.01,2013-07-16 02:47:00,
2013-07-15 22:52:00,72.0,72.0,29.41,ENE,67,0.0,0.0,100,0.00,,---,0.00,0.00,VWS V14.01,2013-07-16 02:52:00,
2013-07-15 22:57:00,72.0,72.0,29.41,ENE,67,0.0,0.0,100,0.00,,---,0.00,0.00,VWS V14.01,2013-07-16 02:57:00,
2013-07-15 23:02:00,72.0,72.0,29.42,ENE,67,0.0,0.0,100,0.00,,---,0.00,0.00,VWS V14.01,2013-07-16 03:02:00,
2013-07-15 23:07:00,71.0,71.0,29.42,ENE,67,0.0,0.0,100,0.00,,---,0.00,0.00,VWS V14.01,2013-07-16 03:07:00,
2013-07-15 23:12:00,71.0,71.0,29.42,ENE,67,0.0,0.0,100,0.00,,---,0.00,0.00,VWS V14.01,2013-07-16 03:12:00,
2013-07-15 23:17:00,71.0,71.0,29.42,ENE,67,0.0,0.0,100,0.00,,---,0.00,0.00,VWS V14.01,2013-07-16 03:17:00,
2013-07-15 23:22:00,71.0,71.0,29.42,ENE,67,0.0,0.0,100,0.00,,---,0.00,0.00,VWS V14.01,2013-07-16 03:22:00,
2013-07-15 23:27:00,71.0,71.0,29.42,ENE,67,0.0,0.0,100,0.00,,---,0.00,0.00,VWS V14.01,2013-07-16 03:27:00,
2013-07-15 23:33:00,71.0,71.0,29.42,ENE,67,0.0,0.0,100,0.00,,---,0.00,0.00,VWS V14.01,2013-07-16 03:33:00,
2013-07-15 23:38:00,71.0,71.0,29.43,ENE,67,0.0,0.0,100,0.00,,---,0.00,0.00,VWS V14.01,2013-07-16 03:38:00,
2013-07-15 23:43:00,71.0,71.0,29.43,ENE,67,0.0,0.0,100,0.00,,---,0.00,0.00,VWS V14.01,2013-07-16 03:43:00,
2013-07-15 23:48:00,71.0,71.0,29.42,ENE,67,0.0,0.0,100,0.00,,---,0.00,0.00,VWS V14.01,2013-07-16 03:48:00,
2013-07-15 23:53:00,70.0,70.0,29.42,ENE,67,0.0,0.0,100,0.00,,---,0.00,0.00,VWS V14.01,2013-07-16 03:53:00,
2013-07-15 23:58:00,70.0,70.0,29.43,ENE,67,0.0,0.0,100,0.00,,---,0.00,0.00,VWS V14.01,2013-07-16 03:58:00,